Time;durP1;ratioP1;P1;durP2;ratioP2;P2;SDS_P1;SDS_P2;PMS_P1;PMS_P2;Temp;Humidity;BMP_temperature;BMP_pressure;BME280_temperature;BME280_humidity;BME280_pressure;Samples;Min_cycle;Max_cycle;Signal;HPM_P1;HPM_P2
2023/07/26 00:01:49;;;;;;;14.93;8.57;;;;;;;;;;4932172;29;20028;-52
2023/07/26 00:04:15;;;;;;;15.48;9.05;;;;;;;;;;4930426;28;20850;-53
2023/07/26 00:06:41;;;;;;;16.30;9.10;;;;;;;;;;4932114;29;20081;-54
2023/07/26 00:09:08;;;;;;;15.90;9.10;;;;;;;;;;4932150;29;20070;-53
2023/07/26 00:11:34;;;;;;;15.68;9.52;;;;;;;;;;4932067;29;20055;-52
2023/07/26 00:14:00;;;;;;;15.07;8.88;;;;;;;;;;4931562;29;20016;-54
2023/07/26 00:16:26;;;;;;;15.63;9.05;;;;;;;;;;4932010;29;20077;-52
2023/07/26 00:18:52;;;;;;;19.15;9.50;;;;;;;;;;4933292;28;20034;-52
2023/07/26 00:21:18;;;;;;;15.70;9.35;;;;;;;;;;4933073;28;20040;-50
2023/07/26 00:23:44;;;;;;;16.65;9.40;;;;;;;;;;4931200;29;20498;-52
2023/07/26 00:26:10;;;;;;;15.27;9.15;;;;;;;;;;4931140;29;20052;-52
2023/07/26 00:28:36;;;;;;;16.38;9.25;;;;;;;;;;4931858;29;20039;-52
2023/07/26 00:31:02;;;;;;;15.98;9.32;;;;;;;;;;4933667;28;20089;-49
2023/07/26 00:33:28;;;;;;;16.60;9.38;;;;;;;;;;4932129;28;20024;-49
2023/07/26 00:35:54;;;;;;;14.75;8.90;;;;;;;;;;4931314;29;20039;-52
2023/07/26 00:38:20;;;;;;;15.98;9.50;;;;;;;;;;4931845;29;20031;-49
2023/07/26 00:40:46;;;;;;;15.52;9.35;;;;;;;;;;4931673;28;20035;-53
2023/07/26 00:43:12;;;;;;;15.95;9.38;;;;;;;;;;4932193;29;20028;-52
2023/07/26 00:45:40;;;;;;;14.90;9.13;;;;;;;;;;4931366;29;20062;-48
2023/07/26 00:48:06;;;;;;;15.95;9.60;;;;;;;;;;4932438;29;20055;-51
2023/07/26 00:50:32;;;;;;;17.25;9.88;;;;;;;;;;4932617;29;20477;-53
2023/07/26 00:52:58;;;;;;;16.70;9.52;;;;;;;;;;4932036;28;20028;-53
2023/07/26 00:55:24;;;;;;;17.08;9.20;;;;;;;;;;4931333;29;20035;-50
2023/07/26 00:57:51;;;;;;;18.98;9.40;;;;;;;;;;4932275;29;20060;-53
2023/07/26 01:00:18;;;;;;;16.33;9.98;;;;;;;;;;4931633;29;20150;-55
2023/07/26 01:02:44;;;;;;;17.50;9.80;;;;;;;;;;4931643;29;20388;-50
2023/07/26 01:05:10;;;;;;;15.85;9.30;;;;;;;;;;4930915;29;20472;-53
2023/07/26 01:07:49;;;;;;;16.60;9.30;;;;;;;;;;4931555;29;20489;-53
2023/07/26 01:10:29;;;;;;;15.90;9.18;;;;;;;;;;4930456;28;20587;-52
2023/07/26 01:12:58;;;;;;;16.30;9.60;;;;;;;;;;4931642;29;20024;-52
2023/07/26 01:15:23;;;;;;;;;;;;;;;;;;4931010;29;20036;-51
2023/07/26 01:18:06;;;;;;;15.68;9.52;;;;;;;;;;4931524;29;19982;-50
2023/07/26 01:20:32;;;;;;;18.30;10.30;;;;;;;;;;4931132;29;20039;-53
2023/07/26 01:22:58;;;;;;;16.60;9.23;;;;;;;;;;4930279;28;20034;-51
2023/07/26 01:25:24;;;;;;;15.93;9.10;;;;;;;;;;4930586;29;20387;-50
2023/07/26 01:27:50;;;;;;;17.08;10.43;;;;;;;;;;4931182;28;20085;-52
2023/07/26 01:30:16;;;;;;;16.23;9.13;;;;;;;;;;4931449;29;20031;-49
2023/07/26 01:32:43;;;;;;;15.98;10.20;;;;;;;;;;4931509;29;20035;-50
2023/07/26 01:35:09;;;;;;;18.48;10.00;;;;;;;;;;4930932;29;20024;-52
2023/07/26 01:37:37;;;;;;;17.50;9.75;;;;;;;;;;4933466;28;20468;-49
2023/07/26 01:40:03;;;;;;;19.05;9.50;;;;;;;;;;4934543;29;20032;-52
2023/07/26 01:42:29;;;;;;;16.00;9.68;;;;;;;;;;4934582;28;20041;-48
2023/07/26 01:44:55;;;;;;;18.38;10.18;;;;;;;;;;4933737;29;20035;-53
2023/07/26 01:47:21;;;;;;;18.33;9.27;;;;;;;;;;4934500;29;20062;-51
2023/07/26 01:49:47;;;;;;;16.55;9.45;;;;;;;;;;4933149;28;20038;-52
2023/07/26 01:52:13;;;;;;;19.48;10.38;;;;;;;;;;4934147;28;20035;-49
2023/07/26 01:54:39;;;;;;;16.15;9.80;;;;;;;;;;4933468;29;20094;-47
2023/07/26 01:57:05;;;;;;;18.60;9.95;;;;;;;;;;4934157;29;20492;-47
2023/07/26 01:59:31;;;;;;;16.33;9.38;;;;;;;;;;4934116;29;20038;-54
2023/07/26 02:01:57;;;;;;;17.23;9.57;;;;;;;;;;4960739;28;20027;-50
2023/07/26 02:04:24;;;;;;;17.05;9.70;;;;;;;;;;4971797;28;20364;-54
2023/07/26 02:06:50;;;;;;;17.85;10.48;;;;;;;;;;4972625;28;20606;-49
2023/07/26 02:09:16;;;;;;;17.17;9.52;;;;;;;;;;4972588;28;20062;-51
2023/07/26 02:11:42;;;;;;;16.52;10.05;;;;;;;;;;4972188;28;20548;-54
2023/07/26 02:14:07;;;;;;;17.92;9.95;;;;;;;;;;4971710;28;20102;-49
2023/07/26 02:16:33;;;;;;;18.23;10.60;;;;;;;;;;4972149;28;20031;-52
2023/07/26 02:18:59;;;;;;;17.30;10.23;;;;;;;;;;4972299;28;20050;-52
2023/07/26 02:21:25;;;;;;;15.90;9.65;;;;;;;;;;4972049;28;20093;-52
2023/07/26 02:23:51;;;;;;;16.33;9.82;;;;;;;;;;4971868;28;20031;-49
2023/07/26 02:26:17;;;;;;;16.27;9.52;;;;;;;;;;4971819;28;20035;-51
2023/07/26 02:28:43;;;;;;;16.77;9.55;;;;;;;;;;4972106;28;20103;-49
2023/07/26 02:31:09;;;;;;;17.63;10.63;;;;;;;;;;4972023;28;20027;-51
2023/07/26 02:33:35;;;;;;;18.80;9.63;;;;;;;;;;4971848;28;20027;-53
2023/07/26 02:36:01;;;;;;;21.77;10.20;;;;;;;;;;4955731;28;20065;-52
2023/07/26 02:38:27;;;;;;;18.60;9.60;;;;;;;;;;4952618;28;20027;-52
2023/07/26 02:40:53;;;;;;;17.92;9.20;;;;;;;;;;4935270;28;20451;-53
2023/07/26 02:43:19;;;;;;;18.88;9.25;;;;;;;;;;4952599;28;20054;-51
2023/07/26 02:45:45;;;;;;;19.88;9.32;;;;;;;;;;4952309;28;20655;-49
2023/07/26 02:48:11;;;;;;;15.88;9.23;;;;;;;;;;4951485;28;20097;-49
2023/07/26 02:50:37;;;;;;;16.15;9.38;;;;;;;;;;4952412;28;20456;-49
2023/07/26 02:53:03;;;;;;;16.17;9.50;;;;;;;;;;4935285;28;20024;-55
2023/07/26 02:55:29;;;;;;;24.83;10.70;;;;;;;;;;4951519;28;20015;-51
2023/07/26 02:57:55;;;;;;;18.80;9.57;;;;;;;;;;4952516;28;20108;-52
2023/07/26 03:00:21;;;;;;;16.65;9.43;;;;;;;;;;4952414;28;20031;-49
2023/07/26 03:02:47;;;;;;;15.68;9.30;;;;;;;;;;4952520;28;20390;-49
2023/07/26 03:05:13;;;;;;;18.95;9.43;;;;;;;;;;4951402;28;20039;-53
2023/07/26 03:07:39;;;;;;;16.88;9.85;;;;;;;;;;4935165;28;20036;-51
2023/07/26 03:10:05;;;;;;;18.50;9.77;;;;;;;;;;4935172;28;20023;-52
2023/07/26 03:12:31;;;;;;;15.82;8.70;;;;;;;;;;4952435;28;20055;-49
2023/07/26 03:14:57;;;;;;;16.42;9.57;;;;;;;;;;4951787;28;20403;-48
2023/07/26 03:17:23;;;;;;;18.27;9.50;;;;;;;;;;4952160;28;20031;-54
2023/07/26 03:19:50;;;;;;;16.30;9.55;;;;;;;;;;4952226;28;20142;-54
2023/07/26 03:22:16;;;;;;;16.85;10.15;;;;;;;;;;4934594;28;20031;-53
2023/07/26 03:24:42;;;;;;;18.23;9.45;;;;;;;;;;4934114;28;20117;-48
2023/07/26 03:27:08;;;;;;;16.85;9.82;;;;;;;;;;4951976;28;20045;-54
2023/07/26 03:29:34;;;;;;;17.98;9.82;;;;;;;;;;4951781;28;20083;-51
2023/07/26 03:32:00;;;;;;;16.40;9.30;;;;;;;;;;4951505;28;20031;-53
2023/07/26 03:34:26;;;;;;;18.02;9.70;;;;;;;;;;4950777;28;20031;-50
2023/07/26 03:36:52;;;;;;;17.67;9.68;;;;;;;;;;4952024;28;20098;-52
2023/07/26 03:39:18;;;;;;;17.05;9.27;;;;;;;;;;4951928;28;20077;-51
2023/07/26 03:41:44;;;;;;;17.05;9.13;;;;;;;;;;4951590;28;20036;-48
2023/07/26 03:44:10;;;;;;;17.55;9.40;;;;;;;;;;4950779;28;20027;-49
2023/07/26 03:46:36;;;;;;;17.88;10.57;;;;;;;;;;4934622;28;20059;-53
2023/07/26 03:49:02;;;;;;;17.08;9.25;;;;;;;;;;4951752;28;20023;-49
2023/07/26 03:51:28;;;;;;;17.15;9.50;;;;;;;;;;4951642;28;20035;-48
2023/07/26 03:53:54;;;;;;;19.17;9.85;;;;;;;;;;4951366;28;20031;-51
2023/07/26 03:56:20;;;;;;;18.67;9.52;;;;;;;;;;4951226;28;20031;-55
2023/07/26 03:58:46;;;;;;;16.52;9.27;;;;;;;;;;4951143;28;20027;-53
2023/07/26 04:01:12;;;;;;;17.10;9.32;;;;;;;;;;4951223;28;20499;-52
2023/07/26 04:03:38;;;;;;;17.30;9.52;;;;;;;;;;4951351;28;20066;-52
2023/07/26 04:06:03;;;;;;;17.90;9.10;;;;;;;;;;4950581;28;20487;-48
2023/07/26 04:08:29;;;;;;;20.75;10.35;;;;;;;;;;4933972;28;20136;-53
2023/07/26 04:10:55;;;;;;;16.92;9.98;;;;;;;;;;4950946;28;20487;-53
2023/07/26 04:13:21;;;;;;;16.02;9.48;;;;;;;;;;4951163;28;20073;-55
2023/07/26 04:15:48;;;;;;;16.75;9.43;;;;;;;;;;4950296;28;20558;-51
2023/07/26 04:18:14;;;;;;;16.35;9.82;;;;;;;;;;4933846;28;20031;-54
2023/07/26 04:20:40;;;;;;;17.17;9.82;;;;;;;;;;4950813;28;20539;-48
2023/07/26 04:23:06;;;;;;;16.80;9.73;;;;;;;;;;4950984;28;20037;-53
2023/07/26 04:25:32;;;;;;;16.90;10.43;;;;;;;;;;4950113;28;20030;-53
2023/07/26 04:27:58;;;;;;;17.02;9.70;;;;;;;;;;4933880;28;20027;-53
2023/07/26 04:30:24;;;;;;;17.42;10.10;;;;;;;;;;4950696;28;20038;-52
2023/07/26 04:32:50;;;;;;;17.30;10.10;;;;;;;;;;4951115;28;20039;-55
2023/07/26 04:35:16;;;;;;;16.52;9.38;;;;;;;;;;4950162;28;20024;-55
2023/07/26 04:37:42;;;;;;;16.48;9.50;;;;;;;;;;4950824;28;20067;-50
2023/07/26 04:40:08;;;;;;;17.10;10.02;;;;;;;;;;4950810;28;20051;-50
2023/07/26 04:42:34;;;;;;;17.50;9.82;;;;;;;;;;4950922;28;20505;-50
2023/07/26 04:45:00;;;;;;;17.40;10.63;;;;;;;;;;4949965;28;20031;-56
2023/07/26 04:47:26;;;;;;;19.02;10.35;;;;;;;;;;4950588;28;20102;-51
2023/07/26 04:49:52;;;;;;;16.65;10.48;;;;;;;;;;4938772;28;20043;-52
2023/07/26 04:52:18;;;;;;;18.20;10.82;;;;;;;;;;4950727;29;20076;-54
2023/07/26 04:54:44;;;;;;;17.60;10.88;;;;;;;;;;4947155;28;20153;-47
2023/07/26 04:57:10;;;;;;;18.80;11.00;;;;;;;;;;4983061;28;20027;-53
2023/07/26 04:59:36;;;;;;;18.05;11.10;;;;;;;;;;4950829;29;20125;-49
2023/07/26 05:02:02;;;;;;;18.17;10.95;;;;;;;;;;4950570;29;20031;-51
2023/07/26 05:04:28;;;;;;;19.42;11.85;;;;;;;;;;4949947;28;20391;-48
2023/07/26 05:06:54;;;;;;;20.58;11.73;;;;;;;;;;4951715;28;20023;-52
2023/07/26 05:09:20;;;;;;;19.65;10.82;;;;;;;;;;4950581;28;20430;-51
2023/07/26 05:11:46;;;;;;;18.40;12.25;;;;;;;;;;4952828;28;20062;-49
2023/07/26 05:14:12;;;;;;;19.90;11.45;;;;;;;;;;4952890;28;20453;-49
2023/07/26 05:16:38;;;;;;;19.35;11.63;;;;;;;;;;4953506;28;20100;-55
2023/07/26 05:19:04;;;;;;;18.58;11.68;;;;;;;;;;4953528;28;20023;-54
2023/07/26 05:21:30;;;;;;;18.85;11.80;;;;;;;;;;4953380;28;20070;-53
2023/07/26 05:23:56;;;;;;;18.98;11.48;;;;;;;;;;4952737;28;20062;-51
2023/07/26 05:26:22;;;;;;;17.80;11.63;;;;;;;;;;4953282;28;20035;-51
2023/07/26 05:28:48;;;;;;;19.38;11.13;;;;;;;;;;4953621;29;20027;-51
2023/07/26 05:31:14;;;;;;;18.58;11.48;;;;;;;;;;4953438;28;20114;-50
2023/07/26 05:33:40;;;;;;;17.88;11.43;;;;;;;;;;4953580;28;20042;-51
2023/07/26 05:36:06;;;;;;;21.13;12.48;;;;;;;;;;4952861;28;20055;-48
2023/07/26 05:38:32;;;;;;;20.75;12.07;;;;;;;;;;4953691;28;20023;-48
2023/07/26 05:41:03;;;;;;;20.17;12.15;;;;;;;;;;4953481;28;20031;-50
2023/07/26 05:43:29;;;;;;;18.88;11.25;;;;;;;;;;4953376;28;20038;-51
2023/07/26 05:45:55;;;;;;;17.73;10.90;;;;;;;;;;4952400;28;20035;-50
2023/07/26 05:48:21;;;;;;;18.52;12.07;;;;;;;;;;4953172;28;20088;-51
2023/07/26 05:50:48;;;;;;;19.58;11.75;;;;;;;;;;4953067;28;20042;-49
2023/07/26 05:53:14;;;;;;;17.52;11.30;;;;;;;;;;4952771;28;20023;-55
2023/07/26 05:55:40;;;;;;;19.42;11.10;;;;;;;;;;4952126;28;20110;-51
2023/07/26 05:58:06;;;;;;;18.70;11.43;;;;;;;;;;4952236;29;20047;-53
2023/07/26 06:00:32;;;;;;;19.08;11.90;;;;;;;;;;4952650;28;20027;-49
2023/07/26 06:02:58;;;;;;;19.73;11.95;;;;;;;;;;4952801;28;20028;-51
2023/07/26 06:05:24;;;;;;;18.98;12.00;;;;;;;;;;4951956;28;20502;-56
2023/07/26 06:07:51;;;;;;;19.40;12.52;;;;;;;;;;4952554;28;20043;-54
2023/07/26 06:10:17;;;;;;;20.08;11.65;;;;;;;;;;4952510;28;20059;-49
2023/07/26 06:12:43;;;;;;;18.70;11.65;;;;;;;;;;4952566;28;20372;-53
2023/07/26 06:15:09;;;;;;;19.02;11.70;;;;;;;;;;4950511;28;20034;-49
2023/07/26 06:17:35;;;;;;;17.52;10.77;;;;;;;;;;4952941;28;20027;-51
2023/07/26 06:20:01;;;;;;;17.88;11.55;;;;;;;;;;4952395;28;20083;-51
2023/07/26 06:22:28;;;;;;;19.35;11.80;;;;;;;;;;4985604;23;20093;-61
2023/07/26 06:24:54;;;;;;;18.25;11.45;;;;;;;;;;4970323;28;20143;-63
2023/07/26 06:27:25;;;;;;;20.13;11.70;;;;;;;;;;4971230;28;20322;-62
2023/07/26 06:29:51;;;;;;;17.13;11.00;;;;;;;;;;4969539;28;20046;-63
2023/07/26 06:32:17;;;;;;;18.83;11.63;;;;;;;;;;4970973;28;20031;-63
2023/07/26 06:34:43;;;;;;;17.85;11.05;;;;;;;;;;4970119;28;20136;-63
2023/07/26 06:37:09;;;;;;;17.85;10.82;;;;;;;;;;4970916;28;20027;-62
2023/07/26 06:39:35;;;;;;;16.38;10.23;;;;;;;;;;4970401;28;20033;-64
2023/07/26 06:42:01;;;;;;;18.42;11.02;;;;;;;;;;4970435;28;20027;-64
2023/07/26 06:44:27;;;;;;;17.70;11.25;;;;;;;;;;4970083;28;20379;-61
2023/07/26 06:46:53;;;;;;;19.45;11.80;;;;;;;;;;4970971;28;20538;-62
2023/07/26 06:49:19;;;;;;;18.40;11.48;;;;;;;;;;4971069;28;20023;-62
2023/07/26 06:51:45;;;;;;;18.25;11.57;;;;;;;;;;4970627;28;20120;-63
2023/07/26 06:54:11;;;;;;;16.83;10.50;;;;;;;;;;5027501;28;20598;-62
2023/07/26 06:56:37;;;;;;;17.98;11.32;;;;;;;;;;5049610;28;20028;-61
2023/07/26 06:59:08;;;;;;;18.02;11.10;;;;;;;;;;4953184;28;20019;-62
2023/07/26 07:01:34;;;;;;;19.98;11.98;;;;;;;;;;4970529;28;20114;-63
2023/07/26 07:04:00;;;;;;;18.75;11.82;;;;;;;;;;4970222;28;20076;-64
2023/07/26 07:06:26;;;;;;;18.67;11.63;;;;;;;;;;4970068;28;20035;-64
2023/07/26 07:08:52;;;;;;;19.98;12.90;;;;;;;;;;4970259;28;20030;-62
2023/07/26 07:11:18;;;;;;;19.98;12.35;;;;;;;;;;4970443;28;20118;-65
2023/07/26 07:13:44;;;;;;;19.40;12.20;;;;;;;;;;4969898;28;20449;-62
2023/07/26 07:16:10;;;;;;;17.75;11.73;;;;;;;;;;4969465;28;20076;-62
2023/07/26 07:18:36;;;;;;;19.05;12.80;;;;;;;;;;4970123;28;20387;-61
2023/07/26 07:21:03;;;;;;;21.00;12.05;;;;;;;;;;4969609;28;20172;-62
2023/07/26 07:23:32;;;;;;;20.73;13.23;;;;;;;;;;4970318;28;20027;-62
2023/07/26 07:25:59;;;;;;;19.42;12.98;;;;;;;;;;4951599;28;20063;-63
2023/07/26 07:28:24;;;;;;;18.05;11.93;;;;;;;;;;4952338;28;20479;-64
2023/07/26 07:30:51;;;;;;;20.15;13.35;;;;;;;;;;4969707;28;20031;-61
2023/07/26 07:33:17;;;;;;;19.92;12.55;;;;;;;;;;4969249;28;20027;-58
2023/07/26 07:35:43;;;;;;;18.20;11.80;;;;;;;;;;4968945;28;20114;-59
2023/07/26 07:38:09;;;;;;;18.88;12.80;;;;;;;;;;4969687;28;20026;-61
2023/07/26 07:40:35;;;;;;;19.00;12.57;;;;;;;;;;4952201;28;20081;-61
2023/07/26 07:43:01;;;;;;;18.65;12.00;;;;;;;;;;4969812;28;20050;-59
2023/07/26 07:45:27;;;;;;;20.15;13.32;;;;;;;;;;4968760;28;20049;-60
2023/07/26 07:47:53;;;;;;;18.52;11.70;;;;;;;;;;4969694;28;20031;-60
2023/07/26 07:50:19;;;;;;;18.45;13.15;;;;;;;;;;4969369;28;20023;-60
2023/07/26 07:52:45;;;;;;;18.27;11.27;;;;;;;;;;4951978;28;20461;-58
2023/07/26 07:55:11;;;;;;;17.55;11.40;;;;;;;;;;4967844;28;20038;-60
2023/07/26 07:57:37;;;;;;;17.95;11.35;;;;;;;;;;4968251;28;20416;-56
2023/07/26 08:00:03;;;;;;;16.95;11.10;;;;;;;;;;4969046;28;20031;-58
2023/07/26 08:02:29;;;;;;;15.85;10.60;;;;;;;;;;4969193;28;20030;-60
2023/07/26 08:04:55;;;;;;;17.33;10.90;;;;;;;;;;4968319;28;20034;-60
2023/07/26 08:07:21;;;;;;;18.30;11.20;;;;;;;;;;4952297;28;20080;-60
2023/07/26 08:09:47;;;;;;;18.33;9.93;;;;;;;;;;4969985;28;20106;-59
2023/07/26 08:12:14;;;;;;;16.98;10.80;;;;;;;;;;4969408;28;20054;-59
2023/07/26 08:14:40;;;;;;;18.60;10.38;;;;;;;;;;4968541;28;20080;-61
2023/07/26 08:17:06;;;;;;;16.85;11.52;;;;;;;;;;4969211;28;20094;-59
2023/07/26 08:19:32;;;;;;;17.38;11.48;;;;;;;;;;4969112;28;20107;-54
2023/07/26 08:21:58;;;;;;;16.23;10.80;;;;;;;;;;4969148;28;20057;-50
2023/07/26 08:24:24;;;;;;;16.08;10.73;;;;;;;;;;4968645;28;20026;-55
2023/07/26 08:26:50;;;;;;;18.65;9.73;;;;;;;;;;4951938;28;20173;-53
2023/07/26 08:29:16;;;;;;;17.17;9.95;;;;;;;;;;4969397;28;20422;-57
2023/07/26 08:31:42;;;;;;;16.90;11.45;;;;;;;;;;4968721;28;20039;-51
2023/07/26 08:34:08;;;;;;;18.25;10.52;;;;;;;;;;4968524;28;20097;-54
2023/07/26 08:36:34;;;;;;;17.75;10.38;;;;;;;;;;4952334;28;20181;-52
2023/07/26 08:39:00;;;;;;;16.77;10.27;;;;;;;;;;4969436;28;20043;-61
2023/07/26 08:41:26;;;;;;;15.40;10.48;;;;;;;;;;4975866;28;20084;-58
2023/07/26 08:43:54;;;;;;;16.80;11.27;;;;;;;;;;5070373;28;20020;-59
2023/07/26 08:46:20;;;;;;;16.95;10.80;;;;;;;;;;5069914;28;20162;-56
2023/07/26 08:48:46;;;;;;;16.02;10.18;;;;;;;;;;5070107;28;20035;-59
2023/07/26 08:51:13;;;;;;;16.23;10.07;;;;;;;;;;5069679;28;20115;-57
2023/07/26 08:53:40;;;;;;;17.70;10.43;;;;;;;;;;5070228;28;20028;-57
2023/07/26 08:56:06;;;;;;;16.13;10.30;;;;;;;;;;5069252;28;20456;-58
2023/07/26 08:58:32;;;;;;;18.10;10.80;;;;;;;;;;5070146;28;20100;-54
2023/07/26 09:00:59;;;;;;;17.08;10.30;;;;;;;;;;5070203;28;20512;-56
2023/07/26 09:03:25;;;;;;;17.17;11.05;;;;;;;;;;5070081;28;20025;-52
2023/07/26 09:06:20;;;;;;;16.42;10.70;;;;;;;;;;5051542;28;20384;-55
2023/07/26 09:08:46;;;;;;;16.13;9.82;;;;;;;;;;5052422;28;20111;-56
2023/07/26 09:11:20;;;;;;;15.35;10.23;;;;;;;;;;5070025;28;20128;-56
2023/07/26 09:13:51;;;;;;;15.30;10.02;;;;;;;;;;5070237;28;20452;-53
2023/07/26 09:16:19;;;;;;;16.45;11.07;;;;;;;;;;5069774;28;20059;-56
2023/07/26 09:19:01;;;;;;;15.50;10.52;;;;;;;;;;5070364;28;20408;-54
2023/07/26 09:21:31;;;;;;;16.70;10.63;;;;;;;;;;5051410;28;20024;-51
2023/07/26 09:23:57;;;;;;;16.23;10.60;;;;;;;;;;5069280;28;20024;-52
2023/07/26 09:26:35;;;;;;;15.77;10.18;;;;;;;;;;5069788;28;20045;-54
2023/07/26 09:29:02;;;;;;;16.45;9.88;;;;;;;;;;5070198;28;20098;-51
2023/07/26 09:31:34;;;;;;;17.02;10.77;;;;;;;;;;5069419;28;20056;-56
2023/07/26 09:34:05;;;;;;;16.63;9.95;;;;;;;;;;5069300;28;20196;-57
2023/07/26 09:36:44;;;;;;;15.43;10.00;;;;;;;;;;5051717;28;20020;-59
2023/07/26 09:39:11;;;;;;;15.23;9.80;;;;;;;;;;5069940;28;20035;-56
2023/07/26 09:41:37;;;;;;;17.20;10.35;;;;;;;;;;5038215;28;20092;-56
2023/07/26 09:44:05;;;;;;;16.05;10.40;;;;;;;;;;4968126;28;20030;-59
2023/07/26 09:46:46;;;;;;;15.77;10.23;;;;;;;;;;4968033;28;20027;-53
2023/07/26 09:49:12;;;;;;;16.55;10.07;;;;;;;;;;4967992;28;20067;-55
2023/07/26 09:51:39;;;;;;;16.77;10.43;;;;;;;;;;4968217;28;20027;-56
2023/07/26 09:54:05;;;;;;;16.42;10.80;;;;;;;;;;4967932;28;20833;-56
2023/07/26 09:56:35;;;;;;;22.38;10.30;;;;;;;;;;4969363;28;20023;-58
2023/07/26 09:59:01;;;;;;;15.95;10.30;;;;;;;;;;4972008;28;20026;-56
2023/07/26 10:01:29;;;;;;;16.05;10.10;;;;;;;;;;4971247;28;20034;-53
2023/07/26 10:03:56;;;;;;;16.25;11.38;;;;;;;;;;4967320;28;20069;-59
2023/07/26 10:06:23;;;;;;;16.40;11.05;;;;;;;;;;4970032;28;20502;-58
2023/07/26 10:08:49;;;;;;;17.17;11.52;;;;;;;;;;4970107;28;20450;-50
2023/07/26 10:11:16;;;;;;;16.95;11.43;;;;;;;;;;4983432;28;20026;-54
2023/07/26 10:13:46;;;;;;;17.13;11.40;;;;;;;;;;4970968;28;20498;-54
2023/07/26 10:16:12;;;;;;;15.73;10.60;;;;;;;;;;4970676;28;20031;-56
2023/07/26 10:18:37;;;;;;;16.92;10.57;;;;;;;;;;4970926;28;20037;-55
2023/07/26 10:21:05;;;;;;;16.52;10.93;;;;;;;;;;4970280;28;20030;-56
2023/07/26 10:23:31;;;;;;;16.52;10.85;;;;;;;;;;4970850;28;20035;-54
2023/07/26 10:26:00;;;;;;;16.67;10.43;;;;;;;;;;4970172;28;20579;-56
2023/07/26 10:28:26;;;;;;;20.40;11.75;;;;;;;;;;4971176;28;20114;-56
2023/07/26 10:30:53;;;;;;;19.27;14.18;;;;;;;;;;4971022;28;20026;-54
2023/07/26 10:33:21;;;;;;;17.90;14.90;;;;;;;;;;4952951;28;20031;-57
2023/07/26 10:35:47;;;;;;;20.35;16.83;;;;;;;;;;4970200;28;20497;-58
2023/07/26 10:38:15;;;;;;;20.90;17.13;;;;;;;;;;4970511;28;20051;-56
2023/07/26 10:40:41;;;;;;;20.97;18.73;;;;;;;;;;4953358;28;20042;-48
2023/07/26 10:43:17;;;;;;;21.95;17.70;;;;;;;;;;4970568;28;20022;-56
2023/07/26 10:45:44;;;;;;;20.50;17.08;;;;;;;;;;4952720;28;20089;-56
2023/07/26 10:48:34;;;;;;;20.75;16.67;;;;;;;;;;4968436;28;20019;-59
2023/07/26 10:51:20;;;;;;;21.63;17.33;;;;;;;;;;4965410;28;20050;-54
2023/07/26 10:53:46;;;;;;;21.15;17.38;;;;;;;;;;4970419;28;20077;-52
2023/07/26 10:56:13;;;;;;;20.58;16.55;;;;;;;;;;4970254;28;20030;-55
2023/07/26 10:58:46;;;;;;;20.95;17.50;;;;;;;;;;4970646;28;20058;-55
2023/07/26 11:01:29;;;;;;;23.65;18.25;;;;;;;;;;4971243;28;20556;-57
2023/07/26 11:03:59;;;;;;;22.75;17.67;;;;;;;;;;4969156;28;20031;-58
2023/07/26 11:06:44;;;;;;;21.50;17.70;;;;;;;;;;4969387;28;20030;-55
2023/07/26 11:09:19;;;;;;;21.27;15.88;;;;;;;;;;4968571;28;20031;-57
2023/07/26 11:12:10;;;;;;;19.65;14.57;;;;;;;;;;4963538;28;20027;-57
2023/07/26 11:14:37;;;;;;;20.85;14.38;;;;;;;;;;4968904;28;20023;-56
2023/07/26 11:17:10;;;;;;;23.40;15.15;;;;;;;;;;4970146;28;20031;-56
2023/07/26 11:19:46;;;;;;;17.58;13.00;;;;;;;;;;4968739;28;20077;-55
2023/07/26 11:22:12;;;;;;;17.05;12.23;;;;;;;;;;4969408;28;20117;-59
2023/07/26 11:24:38;;;;;;;16.75;11.70;;;;;;;;;;4969234;28;20037;-58
2023/07/26 11:27:05;;;;;;;16.63;11.00;;;;;;;;;;4952750;28;20098;-56
2023/07/26 11:29:31;;;;;;;17.42;11.00;;;;;;;;;;4969600;28;20030;-57
2023/07/26 11:31:57;;;;;;;16.17;11.30;;;;;;;;;;4951429;28;20078;-55
2023/07/26 11:34:23;;;;;;;19.70;12.10;;;;;;;;;;4968756;28;20082;-56
2023/07/26 11:36:49;;;;;;;16.30;11.68;;;;;;;;;;4969801;28;20026;-56
2023/07/26 11:39:22;;;;;;;16.90;12.07;;;;;;;;;;4969859;28;20031;-56
2023/07/26 11:41:49;;;;;;;17.35;11.43;;;;;;;;;;4969757;28;20101;-59
2023/07/26 11:44:15;;;;;;;16.98;11.23;;;;;;;;;;4951817;28;20055;-58
2023/07/26 11:46:44;;;;;;;16.45;11.70;;;;;;;;;;4970338;28;20027;-60
2023/07/26 11:49:11;;;;;;;16.13;11.27;;;;;;;;;;4970739;28;20039;-57
2023/07/26 11:51:37;;;;;;;16.48;11.40;;;;;;;;;;4969582;28;20038;-57
2023/07/26 11:54:07;;;;;;;16.15;11.43;;;;;;;;;;4969298;28;20379;-56
2023/07/26 11:56:33;;;;;;;15.20;10.80;;;;;;;;;;4969737;28;20019;-56
2023/07/26 11:58:59;;;;;;;16.65;12.00;;;;;;;;;;4969866;28;20026;-55
2023/07/26 12:01:26;;;;;;;15.32;10.90;;;;;;;;;;4968637;28;20054;-56
2023/07/26 12:03:52;;;;;;;15.40;10.80;;;;;;;;;;4969334;28;20092;-53
2023/07/26 12:06:20;;;;;;;15.88;10.90;;;;;;;;;;4969322;28;20082;-53
2023/07/26 12:08:47;;;;;;;15.88;11.63;;;;;;;;;;4970065;28;20035;-56
2023/07/26 12:11:17;;;;;;;15.65;11.00;;;;;;;;;;4952309;28;20106;-55
2023/07/26 12:13:45;;;;;;;16.42;11.10;;;;;;;;;;4969310;28;20070;-56
2023/07/26 12:16:11;;;;;;;15.40;10.60;;;;;;;;;;4968824;28;20031;-54
2023/07/26 12:18:49;;;;;;;17.50;11.55;;;;;;;;;;4969564;28;20072;-58
2023/07/26 12:24:06;;;;;;;15.95;10.60;;;;;;;;;;4968395;28;19929;-57
2023/07/26 12:26:34;;;;;;;16.65;11.05;;;;;;;;;;4970596;28;20085;-58
2023/07/26 12:29:01;;;;;;;15.90;11.10;;;;;;;;;;4985314;28;20030;-47
2023/07/26 12:31:28;;;;;;;16.60;11.75;;;;;;;;;;4970731;28;20041;-46
2023/07/26 12:33:57;;;;;;;15.82;11.20;;;;;;;;;;4970828;28;20460;-48
2023/07/26 12:36:24;;;;;;;16.30;11.98;;;;;;;;;;4964102;28;20114;-49
2023/07/26 12:38:50;;;;;;;16.15;11.80;;;;;;;;;;4970618;28;20076;-56
2023/07/26 12:41:16;;;;;;;15.73;11.77;;;;;;;;;;4971280;28;20031;-51
2023/07/26 12:43:43;;;;;;;15.73;11.10;;;;;;;;;;4969963;28;20027;-47
2023/07/26 12:46:09;;;;;;;17.13;12.00;;;;;;;;;;4969540;28;20118;-49
2023/07/26 12:48:35;;;;;;;16.27;11.80;;;;;;;;;;4970621;28;20098;-47
2023/07/26 12:51:01;;;;;;;15.45;11.50;;;;;;;;;;4971132;28;20441;-50
2023/07/26 12:53:27;;;;;;;16.42;11.55;;;;;;;;;;4971139;28;20031;-48
2023/07/26 12:55:53;;;;;;;16.45;11.15;;;;;;;;;;4968884;28;20027;-48
2023/07/26 12:58:19;;;;;;;16.30;11.10;;;;;;;;;;4971015;28;20054;-60
2023/07/26 13:00:47;;;;;;;17.02;11.63;;;;;;;;;;4969882;28;20035;-60
2023/07/26 13:03:13;;;;;;;16.52;11.45;;;;;;;;;;4970574;28;20027;-59
2023/07/26 13:05:39;;;;;;;17.15;12.82;;;;;;;;;;4967186;28;20168;-58
2023/07/26 13:08:05;;;;;;;20.30;16.23;;;;;;;;;;4969262;28;20027;-56
2023/07/26 13:10:31;;;;;;;19.80;17.80;;;;;;;;;;4970018;28;20038;-56
2023/07/26 13:12:57;;;;;;;19.38;17.38;;;;;;;;;;4970601;28;20031;-55
2023/07/26 13:15:24;;;;;;;20.10;18.13;;;;;;;;;;4969196;28;20029;-57
2023/07/26 13:17:50;;;;;;;22.10;20.10;;;;;;;;;;4968965;28;20027;-52
2023/07/26 13:20:16;;;;;;;27.50;25.20;;;;;;;;;;4968318;28;20031;-54
2023/07/26 13:22:42;;;;;;;26.17;23.98;;;;;;;;;;4969238;28;20071;-56
2023/07/26 13:25:09;;;;;;;24.27;22.15;;;;;;;;;;4968818;28;20092;-54
2023/07/26 13:27:35;;;;;;;24.70;22.35;;;;;;;;;;4969712;28;20117;-50
2023/07/26 13:30:01;;;;;;;23.13;21.05;;;;;;;;;;4967357;28;20479;-58
2023/07/26 13:32:27;;;;;;;22.38;20.38;;;;;;;;;;4971373;28;20126;-56
2023/07/26 13:34:53;;;;;;;21.90;19.75;;;;;;;;;;4970970;28;20533;-56
2023/07/26 13:37:19;;;;;;;21.42;19.42;;;;;;;;;;4971704;28;20037;-58
2023/07/26 13:39:45;;;;;;;21.20;19.10;;;;;;;;;;4972893;28;20106;-51
2023/07/26 13:42:11;;;;;;;21.20;19.10;;;;;;;;;;4972852;28;20449;-54
2023/07/26 13:44:37;;;;;;;18.88;16.98;;;;;;;;;;4971771;28;20047;-57
2023/07/26 13:47:03;;;;;;;18.08;16.17;;;;;;;;;;4972523;28;20034;-56
2023/07/26 13:49:29;;;;;;;18.33;16.42;;;;;;;;;;4971216;28;20547;-54
2023/07/26 13:51:55;;;;;;;17.90;16.05;;;;;;;;;;4971825;28;20034;-56
2023/07/26 13:54:21;;;;;;;17.77;15.90;;;;;;;;;;4972004;28;20499;-60
2023/07/26 13:56:47;;;;;;;17.42;15.55;;;;;;;;;;4972278;28;20054;-62
2023/07/26 13:59:13;;;;;;;16.75;14.93;;;;;;;;;;4971109;28;20023;-58
2023/07/26 14:01:39;;;;;;;16.65;14.73;;;;;;;;;;4972114;28;20399;-57
2023/07/26 14:04:05;;;;;;;16.98;14.35;;;;;;;;;;4971435;28;20035;-57
2023/07/26 14:06:31;;;;;;;16.92;13.82;;;;;;;;;;4970345;28;20137;-56
2023/07/26 14:08:57;;;;;;;16.38;13.45;;;;;;;;;;4973312;28;20049;-61
2023/07/26 14:11:25;;;;;;;16.40;12.90;;;;;;;;;;4973959;28;20050;-57
2023/07/26 14:13:51;;;;;;;16.17;12.30;;;;;;;;;;4973163;28;20035;-59
2023/07/26 14:16:17;;;;;;;16.40;12.50;;;;;;;;;;4971035;28;20026;-60
2023/07/26 14:18:43;;;;;;;16.20;11.93;;;;;;;;;;4972097;28;20031;-60
2023/07/26 14:21:12;;;;;;;18.13;12.30;;;;;;;;;;4972179;28;20068;-58
2023/07/26 14:23:39;;;;;;;17.73;11.52;;;;;;;;;;4972101;28;20437;-60